Archival Weather

Snohomish County (Paine Fld)

Everett, Washington (KPAE)

Report from: Sunday, November 19, 2023 5:53 PM PST
Current time: Monday, June 17, 2024 1:49 AM PDT

Current weather – Weather history – Daily summaries
Weather forecast

Temperature5.6°C (42.1°F)
Wind chill4.6°C (40.2°F)
Dew point2.8°C (37.0°F)
Winds 3 kts (1.5 m/s, 3.5 mph) East-Southeast (120°)
Visibility10 mi. (16.1 km)
Clouds Sky clear
Altimeter30.45 in.Hg (1031 mB)
Relative humidity82 %
Density altitude-1,634 ft. (-498 m)
Sea-level pressure103.1 kPa (1031 mB, 30.45 in.Hg)
Remarks Automated weather observing station with precipitation discriminator
Flight conditions Visual Meteorological Conditions
Raw dataKPAE 200153Z 12003KT 10SM CLR 06/03 A3045 RMK AO2 SLP313 T00560028
An error has occurred. This application may no longer respond until reloaded. Reload 🗙